Time;durP1;ratioP1;P1;durP2;ratioP2;P2;SDS_P1;SDS_P2;PMS_P1;PMS_P2;Temp;Humidity;BMP_temperature;BMP_pressure;BME280_temperature;BME280_humidity;BME280_pressure;Samples;Min_cycle;Max_cycle;Signal;HPM_P1;HPM_P2
2021/12/06 09:11:57;;;;;;;128.53;115.40;;;;;;;;;;5065679;28;20974;-64
2021/12/06 09:14:23;;;;;;;3.30;3.10;;;;;;;;;;5065695;28;20498;-64
2021/12/06 09:16:50;;;;;;;2.60;2.50;;;;;;;;;;5065306;28;20496;-64
2021/12/06 09:19:17;;;;;;;3.90;3.53;;;;;;;;;;5046304;28;20418;-63
2021/12/06 09:22:11;;;;;;;2.90;2.60;;;;;;;;;;5105559;27;20911;-55
2021/12/06 09:24:37;;;;;;;2.60;2.47;;;;;;;;;;5105008;28;20432;-60
2021/12/06 09:27:04;;;;;;;3.47;3.13;;;;;;;;;;4999358;27;20472;-59
2021/12/06 09:29:32;;;;;;;3.37;2.90;;;;;;;;;;5065057;28;20402;-58
2021/12/06 09:32:00;;;;;;;3.30;3.00;;;;;;;;;;5062650;28;20491;-58
2021/12/06 09:34:27;;;;;;;3.27;3.07;;;;;;;;;;5057510;28;21009;-58
2021/12/06 09:36:53;;;;;;;3.07;2.80;;;;;;;;;;5081333;28;20745;-57
2021/12/06 09:39:20;;;;;;;4.43;3.37;;;;;;;;;;5067466;28;20503;-56
2021/12/06 09:41:46;;;;;;;2.90;2.80;;;;;;;;;;5063496;28;20943;-52
2021/12/06 09:44:13;;;;;;;2.30;2.20;;;;;;;;;;5061998;28;20912;-55
2021/12/06 09:46:40;;;;;;;5.20;3.03;;;;;;;;;;5077019;28;20409;-56
2021/12/06 09:49:11;;;;;;;2.80;2.60;;;;;;;;;;5085671;28;20728;-56
2021/12/06 09:51:38;;;;;;;2.77;2.50;;;;;;;;;;5085554;28;20456;-62
2021/12/06 09:54:04;;;;;;;2.30;2.20;;;;;;;;;;5056323;28;20453;-61
2021/12/06 09:56:32;;;;;;;2.80;2.60;;;;;;;;;;5058676;28;20725;-62
2021/12/06 09:59:00;;;;;;;2.70;2.50;;;;;;;;;;5064449;28;20527;-61
2021/12/06 10:01:28;;;;;;;4.00;3.00;;;;;;;;;;5065006;28;20446;-62
2021/12/06 10:03:57;;;;;;;2.70;2.50;;;;;;;;;;5062232;28;20817;-61
2021/12/06 10:06:23;;;;;;;5.07;2.50;;;;;;;;;;5062373;28;20475;-64
2021/12/06 10:08:50;;;;;;;6.83;2.90;;;;;;;;;;5062571;28;20942;-61
2021/12/06 10:11:18;;;;;;;3.43;2.80;;;;;;;;;;5069729;28;20575;-63
2021/12/06 10:13:44;;;;;;;2.37;2.17;;;;;;;;;;5055775;28;21012;-58
2021/12/06 10:16:11;;;;;;;2.60;2.50;;;;;;;;;;5043561;28;20419;-54
2021/12/06 10:18:37;;;;;;;4.07;2.90;;;;;;;;;;5068605;28;20468;-56
2021/12/06 10:21:03;;;;;;;2.57;2.47;;;;;;;;;;5054591;28;20815;-58
2021/12/06 10:23:30;;;;;;;2.50;2.40;;;;;;;;;;5063823;28;20446;-58
2021/12/06 10:25:56;;;;;;;2.73;2.63;;;;;;;;;;5064206;28;20412;-61
2021/12/06 10:28:30;;;;;;;3.20;3.00;;;;;;;;;;5062466;28;20776;-53
2021/12/06 10:30:57;;;;;;;2.30;2.20;;;;;;;;;;5060981;28;20465;-56
2021/12/06 10:33:26;;;;;;;3.53;3.23;;;;;;;;;;5050818;28;20546;-53
2021/12/06 10:35:54;;;;;;;4.23;2.80;;;;;;;;;;5044466;28;20864;-60
2021/12/06 10:38:24;;;;;;;3.93;2.40;;;;;;;;;;5047519;28;20859;-53
2021/12/06 10:40:50;;;;;;;2.50;2.40;;;;;;;;;;5061244;28;20473;-55
2021/12/06 10:43:17;;;;;;;7.10;2.93;;;;;;;;;;5070554;28;20513;-57
2021/12/06 10:45:47;;;;;;;5.37;3.13;;;;;;;;;;5049240;28;20468;-60
2021/12/06 10:48:20;;;;;;;3.03;2.70;;;;;;;;;;5037327;28;20456;-52
2021/12/06 10:50:52;;;;;;;3.00;2.80;;;;;;;;;;5031189;28;20553;-57
2021/12/06 10:53:34;;;;;;;3.43;3.13;;;;;;;;;;5035397;28;20968;-55
2021/12/06 10:56:00;;;;;;;3.17;2.87;;;;;;;;;;5050304;28;20928;-51
2021/12/06 10:58:28;;;;;;;6.10;2.90;;;;;;;;;;5048833;28;20514;-51
2021/12/06 11:00:56;;;;;;;2.30;2.20;;;;;;;;;;5050085;28;20450;-50
2021/12/06 11:03:28;;;;;;;2.57;2.33;;;;;;;;;;5050626;28;20516;-54
2021/12/06 11:05:59;;;;;;;9.03;2.20;;;;;;;;;;5051272;28;20425;-53
2021/12/06 11:08:25;;;;;;;2.73;2.53;;;;;;;;;;5059474;28;20798;-51
2021/12/06 11:10:56;;;;;;;2.10;2.00;;;;;;;;;;5056073;28;20461;-53
2021/12/06 11:13:31;;;;;;;2.70;2.60;;;;;;;;;;5056302;28;21012;-54
2021/12/06 11:16:02;;;;;;;2.87;2.67;;;;;;;;;;5038252;28;20502;-53
2021/12/06 11:18:32;;;;;;;2.20;2.00;;;;;;;;;;5042912;28;20430;-55
2021/12/06 11:20:59;;;;;;;4.40;1.93;;;;;;;;;;5049881;28;20509;-53
2021/12/06 11:23:25;;;;;;;2.90;2.43;;;;;;;;;;5046209;28;20449;-52
2021/12/06 11:25:58;;;;;;;7.00;2.10;;;;;;;;;;5030255;28;20411;-49
2021/12/06 11:28:28;;;;;;;2.73;2.50;;;;;;;;;;5032534;28;20431;-47
2021/12/06 11:31:04;;;;;;;2.10;2.00;;;;;;;;;;5046452;28;20457;-48
2021/12/06 11:33:33;;;;;;;2.67;2.47;;;;;;;;;;5062546;28;20444;-47
2021/12/06 11:36:00;;;;;;;2.73;2.30;;;;;;;;;;5069720;28;20558;-50
2021/12/06 11:38:30;;;;;;;2.17;2.07;;;;;;;;;;5063188;28;20415;-47
2021/12/06 11:40:58;;;;;;;3.87;2.70;;;;;;;;;;5054725;28;20414;-48
2021/12/06 11:43:24;;;;;;;2.37;2.17;;;;;;;;;;5035900;28;20490;-52
2021/12/06 11:45:57;;;;;;;4.37;2.73;;;;;;;;;;5043202;28;20410;-48
2021/12/06 11:48:26;;;;;;;2.97;2.47;;;;;;;;;;5049489;28;20430;-49
2021/12/06 11:50:55;;;;;;;4.10;2.40;;;;;;;;;;5046827;28;20462;-48
2021/12/06 11:53:25;;;;;;;2.73;2.63;;;;;;;;;;5030676;28;20435;-48
2021/12/06 11:55:55;;;;;;;2.17;2.00;;;;;;;;;;5044688;28;20519;-49
2021/12/06 11:58:22;;;;;;;3.10;2.33;;;;;;;;;;5049323;28;20451;-47
2021/12/06 12:01:02;;;;;;;3.47;2.30;;;;;;;;;;5049133;28;20585;-50
2021/12/06 12:03:31;;;;;;;4.10;2.57;;;;;;;;;;5048958;28;20429;-48
2021/12/06 12:05:58;;;;;;;2.20;2.10;;;;;;;;;;5037859;28;20908;-50
2021/12/06 12:08:25;;;;;;;2.50;2.30;;;;;;;;;;5041569;28;20958;-50
2021/12/06 12:10:55;;;;;;;3.43;2.10;;;;;;;;;;5057457;28;20465;-48
2021/12/06 12:13:22;;;;;;;1.80;1.70;;;;;;;;;;5029573;28;20435;-51
2021/12/06 12:15:48;;;;;;;5.63;2.33;;;;;;;;;;5045004;28;20887;-54
2021/12/06 12:18:14;;;;;;;4.10;2.40;;;;;;;;;;5049595;28;20884;-59
2021/12/06 12:20:40;;;;;;;2.60;2.40;;;;;;;;;;5045571;28;20439;-53
2021/12/06 12:23:09;;;;;;;2.07;1.97;;;;;;;;;;5040576;28;20438;-59
2021/12/06 12:25:46;;;;;;;2.43;2.33;;;;;;;;;;5031345;28;20523;-57
2021/12/06 12:30:45;;;;;;;2.10;1.90;;;;;;;;;;5046947;28;20830;-58
2021/12/06 12:33:12;;;;;;;2.20;2.10;;;;;;;;;;5040135;28;20457;-53
2021/12/06 12:35:41;;;;;;;2.40;2.20;;;;;;;;;;5043283;28;20861;-56
2021/12/06 12:38:09;;;;;;;7.80;1.80;;;;;;;;;;5041233;28;20426;-61
2021/12/06 12:40:40;;;;;;;11.53;2.07;;;;;;;;;;5042221;28;20424;-60
2021/12/06 12:43:14;;;;;;;38.50;26.20;;;;;;;;;;5036739;28;20746;-58
2021/12/06 12:45:41;;;;;;;1.90;1.80;;;;;;;;;;5051787;28;20430;-61
2021/12/06 12:48:08;;;;;;;3.83;2.00;;;;;;;;;;5049055;28;20429;-56
2021/12/06 12:50:34;;;;;;;2.53;2.07;;;;;;;;;;5039619;28;20486;-53
2021/12/06 12:53:15;;;;;;;1.97;1.80;;;25.80;39.50;;;;;;5050865;28;20501;-62
2021/12/06 12:55:48;;;;;;;2.13;2.03;;;24.50;43.00;;;;;;5008797;28;20872;-54
2021/12/06 12:58:17;;;;;;;2.10;2.00;;;23.30;45.20;;;;;;5037437;28;20465;-60
2021/12/06 13:00:52;;;;;;;2.37;2.17;;;22.70;46.00;;;;;;5028712;28;20826;-59
2021/12/06 13:03:37;;;;;;;8.07;2.27;;;22.30;46.90;;;;;;5032408;28;20507;-57
2021/12/06 13:06:29;;;;;;;5.03;1.73;;;21.90;47.70;;;;;;5046394;28;20509;-48
2021/12/06 13:09:01;;;;;;;1.90;1.80;;;21.60;48.30;;;;;;5021608;28;20511;-53
2021/12/06 13:11:45;;;;;;;3.33;2.30;;;21.50;48.60;;;;;;5047273;28;20938;-59
2021/12/06 13:14:29;;;;;;;25.33;2.53;;;21.40;48.70;;;;;;5048219;28;20516;-55
2021/12/06 13:17:03;;;;;;;48.92;32.92;;;20.60;57.40;;;;;;5043151;28;20425;-59
2021/12/06 13:22:11;;;;;;;3.73;1.60;;;21.70;48.40;;;;;;5047802;28;20205;-54
2021/12/06 13:24:45;;;;;;;2.07;1.97;;;21.60;48.40;;;;;;5048003;28;20430;-51
2021/12/06 13:27:32;;;;;;;2.00;1.90;;;21.40;48.60;;;;;;5035488;28;20435;-54
2021/12/06 13:30:09;;;;;;;6.30;1.73;;;21.40;48.90;;;;;;5037857;28;20507;-50
2021/12/06 13:33:03;;;;;;;2.80;1.80;;;21.30;49.40;;;;;;5053312;28;20910;-64
2021/12/06 13:35:44;;;;;;;8.95;1.10;;;23.60;50.10;;;;;;5041186;28;20852;-62
2021/12/06 13:38:28;;;;;;;1.50;1.40;;;23.40;46.70;;;;;;5036219;28;20203;-64
2021/12/06 13:40:56;;;;;;;5.43;1.40;;;23.60;49.50;;;;;;5049214;28;20547;-63
2021/12/06 13:43:32;;;;;;;13.10;1.10;;;23.20;48.40;;;;;;5049845;28;20808;-61
2021/12/06 13:46:02;;;;;;;1.37;1.27;;;22.80;47.90;;;;;;5026366;28;20833;-61
2021/12/06 13:48:40;;;;;;;1.60;1.50;;;22.80;47.90;;;;;;5039025;28;20542;-63
2021/12/06 13:51:31;;;;;;;1.17;1.17;;;22.70;47.20;;;;;;5055842;28;20993;-62
2021/12/06 14:21:48;;;;;;;11.97;6.97;;;;;;;;;;4861396;27;5774191;-86
2021/12/06 14:24:14;;;;;;;11.60;7.47;;;;;;;;;;5063063;28;20168;-86
2021/12/06 14:26:44;;;;;;;8.17;6.60;;;;;;;;;;4983462;28;20478;-86
2021/12/06 14:29:14;;;;;;;8.87;6.47;;;;;;;;;;5055547;28;20957;-86
2021/12/06 14:31:41;;;;;;;7.47;6.80;;;;;;;;;;5046197;28;20506;-86
2021/12/06 14:34:07;;;;;;;14.13;9.13;;;;;;;;;;5045219;28;20514;-85
2021/12/06 14:36:33;;;;;;;8.40;7.60;;;;;;;;;;5045573;28;20589;-86
2021/12/06 14:39:17;;;;;;;12.90;7.83;;;5.60;79.70;;;;;;5046251;28;20406;-87
2021/12/06 14:41:55;;;;;;;11.57;8.60;;;;;;;;;;5063221;28;20460;-86
2021/12/06 14:44:44;;;;;;;12.13;9.53;;;5.40;90.10;;;;;;5065854;28;20406;-86
2021/12/06 14:47:30;;;;;;;16.03;9.10;;;;;;;;;;5057318;28;20419;-86
2021/12/06 14:49:57;;;;;;;11.63;8.80;;;;;;;;;;5045821;28;20377;-86
2021/12/06 14:52:32;;;;;;;11.30;10.10;;;;;;;;;;5046476;28;20407;-86
2021/12/06 14:55:16;;;;;;;10.13;8.90;;;;;;;;;;5058491;28;20929;-86
2021/12/06 14:57:43;;;;;;;11.67;9.90;;;;;;;;;;5066311;28;20402;-86
2021/12/06 15:00:11;;;;;;;15.67;10.97;;;;;;;;;;5065966;28;21317;-86
2021/12/06 15:02:49;;;;;;;14.67;10.53;;;;;;;;;;5065152;28;20449;-86
2021/12/06 15:05:15;;;;;;;15.30;12.43;;;;;;;;;;5045164;28;20580;-86
2021/12/06 15:07:47;;;;;;;24.70;11.50;;;;;;;;;;5045537;28;21161;-86
2021/12/06 15:10:13;;;;;;;13.57;11.17;;;;;;;;;;5045489;28;20757;-86
2021/12/06 15:12:39;;;;;;;15.70;9.83;;;;;;;;;;5056656;28;20934;-85
2021/12/06 15:15:05;;;;;;;12.40;11.07;;;;;;;;;;5047202;28;20461;-86
2021/12/06 15:17:32;;;;;;;17.50;11.37;;;;;;;;;;5063126;28;20458;-86
2021/12/06 15:20:00;;;;;;;14.50;9.87;;;;;;;;;;5063492;28;20512;-85
2021/12/06 15:22:28;;;;;;;18.07;12.40;;;;;;;;;;5065808;28;20430;-86
2021/12/06 15:24:54;;;;;;;18.87;11.10;;;;;;;;;;5064866;28;20404;-85
2021/12/06 15:27:20;;;;;;;21.70;11.00;;;;;;;;;;5062801;28;20783;-86
2021/12/06 15:29:49;;;;;;;20.70;11.47;;;;;;;;;;5067973;28;20942;-86
2021/12/06 15:32:15;;;;;;;16.07;11.40;;;;;;;;;;5056036;28;20381;-85
2021/12/06 15:34:45;;;;;;;16.20;11.07;;;;;;;;;;5051357;28;20462;-85
2021/12/06 15:37:11;;;;;;;15.63;11.40;;;;;;;;;;5046594;28;20723;-85
2021/12/06 15:39:37;;;;;;;89.03;53.17;;;;;;;;;;5032511;28;20555;-86
2021/12/06 15:42:17;;;;;;;97.03;43.30;;;;;;;;;;5031756;28;20394;-86
2021/12/06 15:44:48;;;;;;;55.87;35.93;;;;;;;;;;5031726;28;20516;-86
2021/12/06 15:47:19;;;;;;;13.80;11.43;;;;;;;;;;5033100;28;20416;-86
2021/12/06 15:49:48;;;;;;;19.67;15.80;;;;;;;;;;5033222;28;20521;-86
2021/12/06 15:52:16;;;;;;;182.83;84.53;;;;;;;;;;5031852;28;21160;-86
2021/12/06 15:54:46;;;;;;;11.57;9.20;;;;;;;;;;5049977;28;20591;-86
2021/12/06 15:57:16;;;;;;;125.43;56.10;;;;;;;;;;5052785;28;20835;-86
2021/12/06 15:59:42;;;;;;;18.20;12.87;;;;;;;;;;5051215;28;20377;-86
2021/12/06 16:02:13;;;;;;;13.70;9.47;;;;;;;;;;5051825;28;20490;-85
2021/12/06 16:04:40;;;;;;;16.77;10.23;;;;;;;;;;5035136;28;20453;-85
2021/12/06 16:07:07;;;;;;;15.43;9.60;;;3.90;92.40;;;;;;5062719;28;20423;-86
2021/12/06 16:09:33;;;;;;;11.70;10.00;;;4.20;92.40;;;;;;5047527;28;20772;-85
2021/12/06 16:12:03;;;;;;;17.00;12.03;;;3.50;94.00;;;;;;5042854;28;20423;-86
2021/12/06 16:14:31;;;;;;;14.60;10.40;;;3.40;94.80;;;;;;5032868;28;20497;-87
2021/12/06 16:16:57;;;;;;;33.13;14.37;;;;;;;;;;5046878;28;20879;-86
2021/12/06 16:19:26;;;;;;;10.57;9.00;;;3.20;96.70;;;;;;5045792;28;20390;-84
2021/12/06 16:21:54;;;;;;;12.83;9.83;;;;;;;;;;5033684;28;20497;-85
2021/12/06 16:24:24;;;;;;;64.03;25.77;;;;;;;;;;5051446;28;20439;-85
2021/12/06 16:26:53;;;;;;;17.53;10.10;;;;;;;;;;5038717;28;20403;-84
2021/12/06 16:29:40;;;;;;;19.47;10.83;;;;;;;;;;5032486;28;20868;-85
2021/12/06 16:32:09;;;;;;;11.13;9.07;;;2.80;95.10;;;;;;5044167;28;20402;-84
2021/12/06 16:34:40;;;;;;;12.77;9.60;;;2.70;94.70;;;;;;5034146;28;20537;-84
2021/12/06 16:37:06;;;;;;;10.60;9.00;;;;;;;;;;5049755;28;20418;-86
2021/12/06 16:39:35;;;;;;;9.73;8.73;;;;;;;;;;5046944;28;20542;-85
2021/12/06 16:42:12;;;;;;;10.73;9.17;;;2.60;97.00;;;;;;5050252;28;20771;-85
2021/12/06 16:44:48;;;;;;;23.43;9.93;;;2.50;96.20;;;;;;5047337;28;20892;-85
2021/12/06 16:47:19;;;;;;;14.30;10.40;;;;;;;;;;5046647;28;20885;-85
2021/12/06 16:50:04;;;;;;;13.13;10.80;;;2.40;95.70;;;;;;5049978;28;20486;-85
2021/12/06 16:52:36;;;;;;;10.10;9.13;;;2.30;94.60;;;;;;5049061;28;20421;-85
2021/12/06 16:55:05;;;;;;;20.70;10.80;;;;;;;;;;5048817;28;20424;-85
2021/12/06 16:58:05;;;;;;;26.50;12.77;;;2.40;95.50;;;;;;5050870;28;20493;-85
2021/12/06 17:00:36;;;;;;;27.60;14.07;;;;;;;;;;5018086;28;21026;-86
2021/12/06 17:03:11;;;;;;;27.10;13.00;;;2.30;93.90;;;;;;5048286;28;20494;-85
2021/12/06 17:06:18;;;;;;;17.77;11.50;;;2.40;98.50;;;;;;5049550;28;20481;-86
2021/12/06 17:08:48;;;;;;;23.63;11.40;;;2.20;94.20;;;;;;5020679;28;20858;-85
2021/12/06 17:11:22;;;;;;;85.97;29.73;;;2.20;94.20;;;;;;5046376;28;20428;-85
2021/12/06 17:14:03;;;;;;;13.50;10.73;;;2.10;94.40;;;;;;5031209;28;20668;-86
2021/12/06 17:16:36;;;;;;;12.23;9.40;;;2.10;94.00;;;;;;5034152;28;20819;-86
2021/12/06 17:19:26;;;;;;;11.37;8.90;;;2.00;91.80;;;;;;5040524;28;20518;-85
2021/12/06 17:22:20;;;;;;;11.80;9.67;;;1.90;92.00;;;;;;5048584;28;20452;-85
2021/12/06 17:24:53;;;;;;;11.63;9.60;;;2.00;94.20;;;;;;5031643;28;20405;-85
2021/12/06 17:27:34;;;;;;;23.10;14.33;;;2.00;91.60;;;;;;5035616;28;20420;-86
2021/12/06 17:30:01;;;;;;;28.77;17.60;;;;;;;;;;5036786;28;20413;-86
2021/12/06 17:32:27;;;;;;;23.50;13.03;;;;;;;;;;5032488;28;20868;-86
2021/12/06 17:34:56;;;;;;;20.73;11.50;;;2.20;93.30;;;;;;5050448;28;20411;-85
2021/12/06 17:37:22;;;;;;;19.53;11.60;;;;;;;;;;5061036;28;20449;-86
2021/12/06 17:39:49;;;;;;;15.93;12.00;;;2.30;93.00;;;;;;5046118;28;20488;-85
2021/12/06 17:42:16;;;;;;;209.20;86.87;;;2.40;92.00;;;;;;5031116;28;20862;-85
2021/12/06 17:44:43;;;;;;;18.60;11.03;;;;;;;;;;5052119;28;20397;-85
2021/12/06 17:47:09;;;;;;;18.20;10.90;;;;;;;;;;5050580;28;20377;-85
2021/12/06 17:49:36;;;;;;;17.27;11.50;;;;;;;;;;5051455;28;20429;-85
2021/12/06 17:52:04;;;;;;;15.63;11.37;;;;;;;;;;5049159;28;20423;-84
2021/12/06 17:54:31;;;;;;;55.87;20.80;;;2.40;92.30;;;;;;5049912;28;20419;-84
2021/12/06 17:57:00;;;;;;;12.20;9.90;;;2.40;90.40;;;;;;5050141;28;20415;-84
2021/12/06 17:59:28;;;;;;;15.23;10.10;;;2.30;92.60;;;;;;5049284;28;20384;-83
2021/12/06 18:02:01;;;;;;;27.53;11.80;;;2.20;93.50;;;;;;5050241;28;20869;-83
2021/12/06 18:04:31;;;;;;;18.50;10.90;;;2.30;93.70;;;;;;5049818;28;20430;-84
2021/12/06 18:06:57;;;;;;;21.10;13.90;;;;;;;;;;5048947;28;20530;-84
2021/12/06 18:09:25;;;;;;;20.60;13.40;;;;;;;;;;5039382;28;20460;-87
2021/12/06 18:11:54;;;;;;;27.27;14.40;;;2.20;93.90;;;;;;5030744;28;20786;-85
2021/12/06 18:14:23;;;;;;;22.63;12.87;;;;;;;;;;5043233;28;20411;-85
2021/12/06 18:16:49;;;;;;;18.77;12.23;;;;;;;;;;5049757;28;20377;-85
2021/12/06 18:19:15;;;;;;;23.43;14.23;;;;;;;;;;5048494;28;20471;-86
2021/12/06 18:21:42;;;;;;;14.80;10.73;;;;;;;;;;5049334;28;20434;-86
2021/12/06 18:24:09;;;;;;;17.97;11.43;;;5.20;92.90;;;;;;5047946;28;20414;-86
2021/12/06 18:26:38;;;;;;;16.50;11.57;;;;;;;;;;5031165;28;20450;-86
2021/12/06 18:29:05;;;;;;;16.03;12.73;;;;;;;;;;5029657;28;20405;-85
2021/12/06 18:31:32;;;;;;;14.20;10.40;;;;;;;;;;5029465;28;20491;-86
2021/12/06 18:33:59;;;;;;;18.00;11.37;;;;;;;;;;5044987;28;20454;-86
2021/12/06 18:36:30;;;;;;;15.73;9.83;;;;;;;;;;5049229;28;20501;-86
2021/12/06 18:38:59;;;;;;;15.17;10.40;;;;;;;;;;5041593;28;20386;-85
2021/12/06 18:41:27;;;;;;;19.57;11.20;;;;;;;;;;5051137;28;20449;-86
2021/12/06 18:46:28;;;;;;;20.07;11.60;;;;;;;;;;5050122;28;20864;-86
2021/12/06 18:48:55;;;;;;;17.93;13.23;;;;;;;;;;5047774;28;20464;-85
2021/12/06 18:51:22;;;;;;;15.13;11.57;;;2.30;93.40;;;;;;5049185;28;20482;-86
2021/12/06 18:53:52;;;;;;;24.63;13.00;;;5.20;94.00;;;;;;5046638;28;20780;-85
2021/12/06 18:56:18;;;;;;;15.37;11.50;;;;;;;;;;5030631;28;20451;-85
2021/12/06 18:58:44;;;;;;;15.63;11.90;;;;;;;;;;5042213;28;20393;-85
2021/12/06 19:01:17;;;;;;;17.50;11.90;;;2.30;93.10;;;;;;5048510;28;20411;-85
2021/12/06 19:03:45;;;;;;;21.00;13.93;;;2.20;93.00;;;;;;5036158;28;20386;-84
2021/12/06 19:06:11;;;;;;;19.87;11.33;;;;;;;;;;5029906;28;20426;-84
2021/12/06 19:08:37;;;;;;;13.00;11.10;;;;;;;;;;5033465;28;20456;-86
2021/12/06 19:11:06;;;;;;;22.43;14.70;;;2.20;93.00;;;;;;5033075;28;20466;-87
2021/12/06 19:13:32;;;;;;;16.13;12.33;;;;;;;;;;5041139;28;20824;-86
2021/12/06 19:15:58;;;;;;;18.50;14.60;;;;;;;;;;5053567;28;20404;-87
2021/12/06 19:18:25;;;;;;;22.30;16.40;;;;;;;;;;5052449;28;20459;-84
2021/12/06 19:20:51;;;;;;;19.63;13.50;;;;;;;;;;5053918;28;20450;-84
2021/12/06 19:23:19;;;;;;;21.80;16.67;;;2.10;93.20;;;;;;5039748;28;20504;-84
2021/12/06 19:25:46;;;;;;;20.50;15.00;;;4.30;92.80;;;;;;5032474;28;20789;-84
2021/12/06 19:28:14;;;;;;;26.70;16.93;;;2.00;93.40;;;;;;5032342;28;20473;-85
2021/12/06 19:30:42;;;;;;;23.47;13.30;;;2.00;93.40;;;;;;5034111;28;20455;-85
2021/12/06 19:33:08;;;;;;;24.77;15.73;;;;;;;;;;5041174;28;20404;-85
2021/12/06 19:35:35;;;;;;;23.83;17.13;;;;;;;;;;5053403;28;20811;-85
2021/12/06 19:38:01;;;;;;;25.30;15.57;;;;;;;;;;5053189;28;20404;-85
2021/12/06 19:40:27;;;;;;;13.97;11.07;;;;;;;;;;5051874;28;20921;-85
2021/12/06 19:42:53;;;;;;;27.60;14.10;;;;;;;;;;5050372;28;20433;-85
2021/12/06 19:45:19;;;;;;;21.57;13.87;;;;;;;;;;5053283;28;20485;-85
2021/12/06 19:47:45;;;;;;;31.73;16.27;;;;;;;;;;5053030;28;20829;-85
2021/12/06 19:50:14;;;;;;;32.93;16.07;;;2.00;92.80;;;;;;5053269;28;20456;-85
2021/12/06 19:52:41;;;;;;;24.90;15.50;;;;;;;;;;5051142;28;20393;-85
2021/12/06 19:55:11;;;;;;;26.00;12.57;;;1.90;92.90;;;;;;5046412;28;20414;-85
2021/12/06 19:57:39;;;;;;;17.33;10.50;;;2.10;92.90;;;;;;5031482;28;20419;-86
2021/12/06 20:00:10;;;;;;;12.73;10.40;;;2.10;93.00;;;;;;5032997;28;20445;-84
2021/12/06 20:02:36;;;;;;;13.87;10.00;;;;;;;;;;5030136;28;21027;-85
2021/12/06 20:05:02;;;;;;;13.50;10.13;;;;;;;;;;5032981;28;20448;-85
2021/12/06 20:07:29;;;;;;;18.87;12.83;;;;;;;;;;5031876;28;20420;-85
2021/12/06 20:09:55;;;;;;;17.67;11.57;;;;;;;;;;5032848;28;20877;-85
2021/12/06 20:12:22;;;;;;;12.50;10.07;;;;;;;;;;5031693;28;20726;-85
2021/12/06 20:14:48;;;;;;;20.33;9.10;;;;;;;;;;5050473;28;20814;-85
2021/12/06 20:17:16;;;;;;;12.10;9.13;;;1.80;94.90;;;;;;5051301;28;20471;-85
2021/12/06 20:19:43;;;;;;;21.77;10.83;;;1.70;94.60;;;;;;5033828;28;20398;-85
2021/12/06 20:22:09;;;;;;;15.87;9.60;;;1.70;93.80;;;;;;5037413;28;20522;-85
2021/12/06 20:24:36;;;;;;;11.83;9.10;;;;;;;;;;5052745;28;20917;-85
2021/12/06 20:27:03;;;;;;;9.07;8.13;;;;;;;;;;5034039;28;20413;-85
2021/12/06 21:40:32;;;;;;;7.70;6.77;;;2.70;85.70;;;;;;5106312;27;20553;-85
2021/12/06 21:42:59;;;;;;;9.67;7.90;;;;;;;;;;5104507;28;20383;-85
2021/12/06 21:45:27;;;;;;;6.70;6.10;;;2.60;86.10;;;;;;5106901;28;20444;-85
2021/12/06 21:47:53;;;;;;;8.37;6.70;;;2.50;86.10;;;;;;5100654;28;20495;-85
2021/12/06 21:50:19;;;;;;;7.13;6.40;;;;;;;;;;5086252;28;20816;-85
2021/12/06 21:52:46;;;;;;;7.50;6.10;;;2.70;86.00;;;;;;5104118;28;20411;-85
2021/12/06 21:55:12;;;;;;;10.03;7.37;;;;;;;;;;5100183;28;20415;-85
2021/12/06 21:57:38;;;;;;;8.23;7.00;;;;;;;;;;5104307;28;20412;-85
2021/12/06 22:00:07;;;;;;;6.90;6.30;;;2.70;85.30;;;;;;5106903;28;20533;-83
2021/12/06 22:02:33;;;;;;;6.20;5.60;;;;;;;;;;5105780;28;20404;-84
2021/12/06 22:04:59;;;;;;;8.17;5.27;;;;;;;;;;5100401;28;20428;-84
2021/12/06 22:07:25;;;;;;;6.70;6.20;;;;;;;;;;5103004;28;20444;-85
2021/12/06 22:09:51;;;;;;;6.57;5.93;;;;;;;;;;5101794;28;20383;-85
2021/12/06 22:12:18;;;;;;;6.80;6.20;;;4.70;87.30;;;;;;5105602;28;20386;-86
2021/12/06 22:14:44;;;;;;;6.87;5.33;;;2.60;93.70;;;;;;5104857;28;20472;-86
2021/12/06 22:17:14;;;;;;;5.73;5.13;;;3.30;83.20;;;;;;5089019;28;20448;-86
2021/12/06 22:19:41;;;;;;;11.43;7.17;;;;;;;;;;5086180;28;20463;-85
2021/12/06 22:22:08;;;;;;;7.50;6.20;;;2.80;85.40;;;;;;5089077;28;20811;-85
2021/12/06 22:24:34;;;;;;;8.50;5.47;;;;;;;;;;5093799;28;20532;-85
2021/12/06 22:27:00;;;;;;;8.30;6.50;;;;;;;;;;5099052;28;20423;-85
2021/12/06 22:29:26;;;;;;;10.70;6.07;;;;;;;;;;5095593;28;20420;-85
2021/12/06 22:31:53;;;;;;;9.10;5.27;;;2.80;82.70;;;;;;5093525;28;20898;-85
2021/12/06 22:34:19;;;;;;;6.00;5.10;;;;;;;;;;5095666;28;20491;-86
2021/12/06 22:36:45;;;;;;;6.27;5.27;;;;;;;;;;5095249;28;20379;-85
2021/12/06 22:39:11;;;;;;;12.50;6.37;;;;;;;;;;5094153;28;21019;-86
2021/12/06 22:41:37;;;;;;;10.70;6.60;;;;;;;;;;5097870;28;20495;-86
2021/12/06 22:44:03;;;;;;;7.53;5.90;;;;;;;;;;5092742;28;20379;-86
2021/12/06 22:46:29;;;;;;;4.97;4.50;;;;;;;;;;5094231;28;20870;-86
2021/12/06 22:48:55;;;;;;;4.17;3.97;;;;;;;;;;5095144;28;21182;-85
2021/12/06 22:51:22;;;;;;;3.80;3.60;;;3.80;79.30;;;;;;5084937;28;20395;-85
2021/12/06 22:53:50;;;;;;;3.40;3.20;;;;;;;;;;5077951;28;20384;-85
2021/12/06 22:56:15;;;;;;;3.50;3.33;;;;;;;;;;5080475;28;20803;-85
2021/12/06 22:58:42;;;;;;;3.03;2.93;;;;;;;;;;5084020;28;20451;-85
2021/12/06 23:01:19;;;;;;;3.37;3.27;;;3.60;77.50;;;;;;5090974;28;20486;-85
2021/12/06 23:03:45;;;;;;;3.83;3.50;;;;;;;;;;5084975;28;20965;-85
2021/12/06 23:06:11;;;;;;;5.40;3.10;;;;;;;;;;5070855;28;20392;-85
2021/12/06 23:08:37;;;;;;;3.37;3.27;;;;;;;;;;5071787;28;20926;-85
2021/12/06 23:11:03;;;;;;;9.43;4.10;;;;;;;;;;5090647;28;20532;-85
2021/12/06 23:13:29;;;;;;;3.30;3.20;;;;;;;;;;5088665;28;20773;-85
2021/12/06 23:15:55;;;;;;;3.77;3.57;;;;;;;;;;5079711;28;20510;-85
2021/12/06 23:18:21;;;;;;;3.83;3.57;;;;;;;;;;5070452;28;20418;-86
2021/12/06 23:20:51;;;;;;;3.83;3.60;;;;;;;;;;5070523;28;20731;-85
2021/12/06 23:23:17;;;;;;;3.87;3.63;;;;;;;;;;5083769;28;20473;-84
2021/12/06 23:25:44;;;;;;;3.67;3.57;;;;;;;;;;5094241;28;20481;-83
2021/12/06 23:28:10;;;;;;;3.50;3.40;;;2.90;83.20;;;;;;5095187;28;20406;-84
2021/12/06 23:30:36;;;;;;;3.60;3.40;;;;;;;;;;5092775;28;20478;-82
2021/12/06 23:33:05;;;;;;;3.87;3.70;;;2.50;90.00;;;;;;5093445;28;20425;-82
2021/12/06 23:35:38;;;;;;;3.80;3.70;;;2.80;90.60;;;;;;5094142;28;20456;-82
2021/12/06 23:38:18;;;;;;;3.83;3.63;;;;;;;;;;5093561;28;20401;-82
2021/12/06 23:40:57;;;;;;;4.00;3.80;;;2.60;91.10;;;;;;5088851;28;20417;-82
2021/12/06 23:48:39;;;;;;;4.40;4.20;;;;;;;;;;5093362;28;20394;-81
2021/12/06 23:51:06;;;;;;;3.77;3.67;;;;;;;;;;5087770;28;20388;-81
2021/12/06 23:53:32;;;;;;;4.60;4.30;;;2.90;93.80;;;;;;5071589;28;20424;-81
2021/12/06 23:55:58;;;;;;;4.77;4.37;;;;;;;;;;5071827;28;20430;-81
2021/12/06 23:58:24;;;;;;;4.87;4.57;;;;;;;;;;5072349;28;20373;-81
